Time;durP1;ratioP1;P1;durP2;ratioP2;P2;SDS_P1;SDS_P2;PMS_P1;PMS_P2;Temp;Humidity;BMP_temperature;BMP_pressure;BME280_temperature;BME280_humidity;BME280_pressure;Samples;Min_cycle;Max_cycle;Signal;HPM_P1;HPM_P2
2023/09/06 00:00:12;;;;;;;4.97;4.50;;;;;;;17.66;65.47;98310.94;5008519;28;21317;-76
2023/09/06 00:02:39;;;;;;;4.80;4.40;;;;;;;17.55;66.13;98309.84;5006010;28;20466;-76
2023/09/06 00:05:06;;;;;;;5.70;4.40;;;;;;;17.41;66.85;98301.06;5006570;28;20549;-76
2023/09/06 00:07:33;;;;;;;4.90;4.50;;;;;;;17.39;66.99;98305.94;5004743;28;20453;-76
2023/09/06 00:10:00;;;;;;;5.33;4.70;;;;;;;17.21;68.25;98314.28;5009341;28;20576;-76
2023/09/06 00:12:29;;;;;;;5.17;4.63;;;;;;;17.14;68.71;98308.09;5007326;28;20558;-76
2023/09/06 00:14:56;;;;;;;5.23;4.73;;;;;;;16.99;68.88;98315.94;5008780;28;20461;-76
2023/09/06 00:17:23;;;;;;;5.30;4.90;;;;;;;16.98;68.79;98303.31;5006694;28;20456;-75
2023/09/06 00:19:49;;;;;;;5.20;4.70;;;;;;;16.94;68.92;98304.84;5002235;28;20473;-75
2023/09/06 00:22:18;;;;;;;4.87;4.50;;;;;;;16.97;68.48;98301.66;5004669;28;21031;-75
2023/09/06 00:24:45;;;;;;;4.43;4.13;;;;;;;16.95;67.94;98304.63;5008548;28;20452;-76
2023/09/06 00:27:14;;;;;;;5.07;4.30;;;;;;;16.94;67.61;98313.06;5007957;28;20501;-75
2023/09/06 00:29:42;;;;;;;5.07;4.67;;;;;;;17.00;67.34;98312.13;5004561;28;20481;-76
2023/09/06 00:32:10;;;;;;;4.90;4.47;;;;;;;17.08;66.73;98309.03;5008709;28;20524;-75
2023/09/06 00:34:37;;;;;;;5.53;5.03;;;;;;;17.06;66.70;98313.91;5008102;28;20508;-76
2023/09/06 00:37:05;;;;;;;4.80;4.40;;;;;;;17.01;66.86;98306.41;5004302;28;20508;-75
2023/09/06 00:39:32;;;;;;;4.97;4.57;;;;;;;17.04;67.16;98310.59;5007407;28;21588;-76
2023/09/06 00:42:00;;;;;;;5.10;4.40;;;;;;;16.93;66.43;98301.28;5007418;28;20584;-76
2023/09/06 00:44:27;;;;;;;6.30;5.20;;;;;;;16.87;66.86;98298.69;5008729;28;20449;-76
2023/09/06 00:46:55;;;;;;;4.60;4.20;;;;;;;16.65;66.76;98263.69;5008321;28;20464;-75
2023/09/06 00:49:22;;;;;;;4.97;4.57;;;;;;;16.85;67.13;98303.56;5006735;28;20504;-76
2023/09/06 00:51:48;;;;;;;4.37;4.00;;;;;;;16.96;67.33;98305.44;5002367;28;20551;-75
2023/09/06 00:54:15;;;;;;;5.17;4.77;;;;;;;16.78;68.40;98301.75;5005516;28;20452;-75
2023/09/06 00:56:42;;;;;;;5.37;4.97;;;;;;;16.82;68.11;98301.28;5008103;28;20459;-75
2023/09/06 00:59:12;;;;;;;5.17;4.73;;;;;;;16.75;68.03;98304.97;5006585;28;20541;-75
2023/09/06 01:01:39;;;;;;;4.77;4.37;;;;;;;16.76;68.32;98306.63;5005227;28;21056;-75
2023/09/06 01:04:07;;;;;;;5.57;5.07;;;;;;;16.57;69.21;98305.00;5008744;28;20492;-76
2023/09/06 01:06:35;;;;;;;5.50;5.00;;;;;;;16.51;69.43;98297.75;5005000;28;20445;-75
2023/09/06 01:09:05;;;;;;;6.00;5.07;;;;;;;16.45;69.97;98304.16;5007265;28;20489;-76
2023/09/06 01:11:37;;;;;;;5.83;4.97;;;;;;;16.33;70.62;98300.53;5004720;28;20445;-75
2023/09/06 01:14:04;;;;;;;5.60;5.10;;;;;;;16.27;70.96;98301.47;5006828;28;21040;-75
2023/09/06 01:16:33;;;;;;;5.50;5.10;;;;;;;16.29;71.10;98304.81;5005076;28;20984;-75
2023/09/06 01:19:00;;;;;;;6.27;5.63;;;;;;;16.10;71.62;98291.22;5010211;28;20533;-76
2023/09/06 01:21:35;;;;;;;6.30;5.80;;;;;;;15.94;72.69;98297.28;5013544;28;20497;-75
2023/09/06 01:24:05;;;;;;;5.40;5.00;;;;;;;16.04;72.54;98297.59;5009867;28;20488;-76
2023/09/06 01:26:33;;;;;;;5.00;4.60;;;;;;;16.06;72.31;98295.47;5012446;28;20929;-76
2023/09/06 01:29:00;;;;;;;5.70;5.30;;;;;;;16.08;72.17;98293.34;5013233;28;20508;-76
2023/09/06 01:31:27;;;;;;;5.87;5.37;;;;;;;16.12;71.86;98291.81;5013336;28;20453;-75
2023/09/06 01:33:54;;;;;;;6.33;5.83;;;;;;;16.26;71.47;98295.16;5013971;28;20533;-75
2023/09/06 01:36:21;;;;;;;5.40;4.90;;;;;;;16.12;72.07;98291.81;5011603;28;20457;-75
2023/09/06 01:38:47;;;;;;;5.60;5.00;;;;;;;16.08;72.42;98285.16;5010431;28;21253;-75
2023/09/06 01:41:16;;;;;;;5.93;5.43;;;;;;;15.94;72.91;98291.84;5012793;28;20531;-75
2023/09/06 01:43:42;;;;;;;5.03;4.63;;;;;;;15.94;73.25;98293.72;5012396;28;20468;-75
2023/09/06 01:46:09;;;;;;;6.37;5.40;;;;;;;15.79;74.08;98294.97;5013090;28;20512;-75
2023/09/06 01:48:39;;;;;;;5.33;4.93;;;;;;;15.64;74.65;98293.69;5013001;28;21020;-76
2023/09/06 01:51:08;;;;;;;6.17;5.60;;;;;;;15.63;74.54;98287.41;5012324;28;20512;-76
2023/09/06 01:53:35;;;;;;;6.00;5.50;;;;;;;15.77;74.18;98290.81;5013165;28;20480;-76
2023/09/06 01:56:02;;;;;;;6.83;6.20;;;;;;;15.42;74.61;98253.22;5008410;28;20579;-75
2023/09/06 01:58:32;;;;;;;6.20;5.70;;;;;;;15.35;75.70;98285.19;5011656;28;20992;-75
2023/09/06 02:00:59;;;;;;;7.00;6.40;;;;;;;15.27;75.96;98285.47;5012355;28;20607;-76
2023/09/06 02:03:27;;;;;;;6.33;5.83;;;;;;;15.18;76.50;98286.00;5013998;28;20556;-75
2023/09/06 02:05:53;;;;;;;6.93;6.27;;;;;;;14.96;77.71;98291.03;5012946;28;20464;-75
2023/09/06 02:08:21;;;;;;;6.20;5.70;;;;;;;15.01;77.61;98289.31;5012341;28;20968;-76
2023/09/06 02:10:48;;;;;;;6.27;5.77;;;;;;;15.06;77.46;98284.03;5002686;28;20536;-76
2023/09/06 02:13:15;;;;;;;7.07;5.83;;;;;;;14.84;78.36;98287.38;5012422;28;21026;-75
2023/09/06 02:15:43;;;;;;;6.50;5.90;;;;;;;14.88;78.33;98285.88;5011318;28;20456;-74
2023/09/06 02:18:15;;;;;;;6.20;5.70;;;;;;;14.95;77.65;98292.09;5011286;28;20544;-75
2023/09/06 02:20:42;;;;;;;7.07;6.47;;;;;;;14.84;78.57;98295.56;5012331;28;20480;-76
2023/09/06 02:23:10;;;;;;;7.47;6.77;;;;;;;14.73;79.07;98295.22;5011971;28;20547;-75
2023/09/06 02:25:37;;;;;;;6.80;6.20;;;;;;;14.68;79.28;98286.88;5010339;28;21012;-76
2023/09/06 02:28:05;;;;;;;6.70;6.10;;;;;;;14.64;79.76;98288.38;5009554;28;20518;-76
2023/09/06 02:30:31;;;;;;;6.73;6.10;;;;;;;14.61;80.16;98291.56;5010489;28;20481;-76
2023/09/06 02:33:00;;;;;;;8.03;6.50;;;;;;;14.54;80.57;98295.38;5010832;28;20457;-76
2023/09/06 02:35:27;;;;;;;7.27;6.57;;;;;;;14.53;80.62;98302.72;5010026;28;20608;-76
2023/09/06 02:37:53;;;;;;;6.80;6.30;;;;;;;14.50;80.72;98284.09;5007984;28;20470;-76
2023/09/06 02:40:20;;;;;;;7.07;6.27;;;;;;;14.40;80.91;98290.00;5009731;28;20844;-76
2023/09/06 02:42:49;;;;;;;7.70;6.97;;;;;;;14.29;81.77;98287.16;5008004;28;20481;-76
2023/09/06 02:45:15;;;;;;;7.70;7.00;;;;;;;14.20;82.23;98293.91;5005947;28;20449;-76
2023/09/06 02:47:48;;;;;;;8.00;7.30;;;;;;;14.10;82.44;98289.78;5009168;28;20464;-76
2023/09/06 02:50:17;;;;;;;7.33;6.73;;;;;;;14.08;82.97;98288.31;5008800;28;20484;-76
2023/09/06 02:52:46;;;;;;;7.03;6.53;;;;;;;14.02;83.62;98292.75;5007183;28;20501;-76
2023/09/06 02:55:14;;;;;;;7.83;7.13;;;;;;;13.95;84.00;98281.09;5008285;28;20460;-76
2023/09/06 02:57:41;;;;;;;8.10;7.50;;;;;;;14.12;83.14;98293.13;5010105;28;20487;-76
2023/09/06 03:00:19;;;;;;;6.90;6.30;;;;;;;14.17;83.03;98291.63;5005693;28;20571;-75
2023/09/06 03:02:46;;;;;;;7.97;7.27;;;;;;;14.19;83.20;98289.53;5007648;28;20493;-76
2023/09/06 03:05:17;;;;;;;7.70;7.00;;;;;;;14.10;83.48;98284.34;5009429;28;21109;-75
2023/09/06 03:07:49;;;;;;;7.47;6.87;;;;;;;14.18;83.46;98293.31;5008787;28;20911;-76
2023/09/06 03:10:19;;;;;;;12.40;7.87;;;;;;;14.10;83.86;98295.22;5008910;28;20530;-75
2023/09/06 03:12:47;;;;;;;8.10;7.30;;;;;;;14.13;83.75;98291.22;5009215;28;20531;-76
2023/09/06 03:15:15;;;;;;;8.37;7.67;;;;;;;14.22;83.39;98289.09;5009828;28;20467;-75
2023/09/06 03:17:46;;;;;;;8.47;7.77;;;;;;;14.22;82.90;98289.09;5005465;28;20552;-76
2023/09/06 03:20:22;;;;;;;8.33;7.67;;;;;;;14.22;82.78;98291.81;5004448;28;20567;-75
2023/09/06 03:22:51;;;;;;;7.50;6.80;;;;;;;14.23;81.65;98298.94;5007279;28;20531;-76
2023/09/06 03:25:18;;;;;;;7.87;7.17;;;;;;;14.20;81.08;98300.19;5009273;28;20520;-76
2023/09/06 03:27:45;;;;;;;6.70;6.10;;;;;;;14.25;80.46;98303.09;5010164;28;20480;-76
2023/09/06 03:30:15;;;;;;;7.20;6.70;;;;;;;14.40;79.85;98305.50;5007958;28;20474;-75
2023/09/06 03:32:43;;;;;;;6.83;6.30;;;;;;;14.40;79.22;98300.06;5007178;28;20471;-76
2023/09/06 03:35:10;;;;;;;7.00;6.27;;;;;;;14.42;78.32;98297.97;5007200;28;20521;-76
2023/09/06 03:37:37;;;;;;;6.77;6.20;;;;;;;14.28;78.97;98299.09;5006254;28;20551;-76
2023/09/06 03:40:25;;;;;;;6.87;6.27;;;;;;;14.25;79.40;98303.09;5006401;28;20475;-76
2023/09/06 03:42:54;;;;;;;6.30;5.80;;;;;;;14.26;78.86;98303.94;5009080;28;20568;-76
2023/09/06 03:45:24;;;;;;;5.93;5.43;;;;;;;14.41;77.88;98305.31;5007576;28;20481;-76
2023/09/06 03:47:51;;;;;;;6.70;6.10;;;;;;;14.44;77.70;98299.44;5009011;28;20457;-76
2023/09/06 03:50:18;;;;;;;6.53;5.97;;;;;;;14.49;77.18;98300.66;5008217;28;20487;-75
2023/09/06 03:52:45;;;;;;;6.87;6.27;;;;;;;14.54;76.56;98306.28;5009593;28;21007;-76
2023/09/06 03:55:13;;;;;;;7.63;6.83;;;;;;;14.49;76.95;98304.22;5002269;28;20609;-76
2023/09/06 03:57:40;;;;;;;6.43;5.90;;;;;;;14.53;76.61;98305.44;5004829;28;20491;-76
2023/09/06 04:00:24;;;;;;;5.87;5.37;;;;;;;14.46;76.53;98301.94;5008414;28;20495;-76
2023/09/06 04:02:53;;;;;;;5.53;5.13;;;;;;;14.41;76.26;98299.03;5006854;28;20525;-76
2023/09/06 04:05:25;;;;;;;6.40;5.90;;;;;;;14.42;76.35;98297.97;5008082;28;20538;-76
2023/09/06 04:07:55;;;;;;;6.83;6.23;;;;;;;14.44;75.62;98302.16;5007358;28;20544;-76
2023/09/06 04:10:24;;;;;;;6.50;6.00;;;;;;;14.52;74.94;98297.50;5007253;28;21040;-76
2023/09/06 04:12:53;;;;;;;5.60;5.13;;;;;;;14.51;75.18;98293.94;5006029;28;20484;-76
2023/09/06 04:15:22;;;;;;;7.20;6.60;;;;;;;14.55;75.14;98303.34;5006740;28;20460;-76
2023/09/06 04:17:57;;;;;;;6.23;5.63;;;;;;;14.54;75.02;98296.22;5004814;28;21323;-75
2023/09/06 04:20:26;;;;;;;6.90;6.30;;;;;;;14.39;75.67;98298.38;5005053;28;20995;-75
2023/09/06 04:22:54;;;;;;;7.03;6.53;;;;;;;14.48;75.29;98299.81;5007520;28;20527;-75
2023/09/06 04:25:22;;;;;;;6.30;5.70;;;;;;;14.42;75.15;98297.97;5009022;28;20445;-75
2023/09/06 04:27:54;;;;;;;6.50;6.00;;;;;;;14.41;75.34;98301.75;5007696;28;20574;-75
2023/09/06 04:30:23;;;;;;;7.10;6.50;;;;;;;14.39;75.52;98299.22;4989367;28;20490;-75
2023/09/06 04:32:50;;;;;;;6.53;5.90;;;;;;;14.11;76.15;98291.44;4996567;28;20519;-75
2023/09/06 04:35:17;;;;;;;6.90;6.30;;;;;;;14.26;75.66;98298.50;5005750;28;20457;-74
2023/09/06 04:37:45;;;;;;;6.93;6.43;;;;;;;14.22;76.01;98302.69;5002124;28;20769;-75
2023/09/06 04:40:13;;;;;;;7.17;6.57;;;;;;;14.12;76.11;98304.00;5000775;28;20575;-75
2023/09/06 04:42:41;;;;;;;7.53;6.83;;;;;;;13.97;76.74;98308.88;5000000;28;20898;-76
2023/09/06 04:45:10;;;;;;;7.67;7.00;;;;;;;14.09;77.15;98304.44;4993290;28;20469;-82
2023/09/06 04:47:39;;;;;;;7.63;6.87;;;;;;;14.12;76.89;98314.88;5004261;28;20547;-81
2023/09/06 04:50:07;;;;;;;7.60;7.00;;;;;;;13.98;76.96;98285.22;5005725;28;20472;-77
2023/09/06 04:52:38;;;;;;;7.30;6.60;;;;;;;14.08;77.20;98319.09;5007365;28;20941;-80
2023/09/06 04:55:08;;;;;;;7.57;6.97;;;;;;;13.99;78.23;98316.84;5005615;28;20453;-80
2023/09/06 04:57:36;;;;;;;8.33;7.20;;;;;;;14.02;78.82;98319.97;5006389;28;20464;-78
2023/09/06 05:00:11;;;;;;;7.80;7.10;;;;;;;14.04;78.63;98328.75;5003850;28;20524;-80
2023/09/06 05:02:39;;;;;;;8.63;7.83;;;;;;;14.13;78.82;98316.56;5003518;28;20500;-80
2023/09/06 05:05:06;;;;;;;8.40;7.70;;;;;;;14.13;78.82;98316.56;5003905;28;20548;-80
2023/09/06 05:07:33;;;;;;;9.20;8.40;;;;;;;14.25;78.44;98313.16;5005340;28;20457;-80
2023/09/06 05:10:00;;;;;;;9.40;7.67;;;;;;;14.21;78.98;98317.38;5004395;28;21039;-80
2023/09/06 05:12:26;;;;;;;9.17;8.37;;;;;;;14.31;78.82;98325.88;5002917;28;20813;-81
2023/09/06 05:14:54;;;;;;;8.23;7.53;;;;;;;14.38;78.35;98326.66;4996710;28;20880;-79
2023/09/06 05:17:21;;;;;;;9.77;8.97;;;;;;;14.37;78.46;98323.13;4993772;28;21225;-79
2023/09/06 05:19:51;;;;;;;8.73;8.00;;;;;;;14.40;78.30;98321.84;5002292;28;21012;-70
2023/09/06 05:22:18;;;;;;;10.07;9.17;;;;;;;14.51;77.87;98321.19;5006095;28;21327;-71
2023/09/06 05:24:45;;;;;;;9.80;8.90;;;;;;;14.58;77.09;98326.59;4996432;28;20473;-73
2023/09/06 05:27:12;;;;;;;9.20;8.40;;;;;;;14.71;76.50;98324.56;4998115;28;20449;-72
2023/09/06 05:29:38;;;;;;;9.67;8.87;;;;;;;14.69;76.58;98326.69;4988596;28;21070;-73
2023/09/06 05:32:06;;;;;;;11.03;9.70;;;;;;;14.67;76.67;98323.34;4988865;28;20468;-72
2023/09/06 05:34:33;;;;;;;9.20;8.40;;;;;;;14.73;76.68;98325.19;4995853;28;20481;-86
2023/09/06 05:37:02;;;;;;;8.83;8.10;;;;;;;14.79;76.61;98329.75;5005289;28;20483;-87
2023/09/06 05:39:30;;;;;;;9.03;8.33;;;;;;;14.81;76.86;98324.09;5005353;28;23985;-85
2023/09/06 05:41:57;;;;;;;9.23;8.17;;;;;;;15.12;75.67;98326.75;5000590;28;20496;-81
2023/09/06 05:44:24;;;;;;;8.20;7.50;;;;;;;15.22;74.65;98328.97;5007023;28;20458;-81
2023/09/06 05:46:51;;;;;;;9.20;8.40;;;;;;;15.19;74.95;98321.22;4996184;28;20464;-81
2023/09/06 05:49:17;;;;;;;8.40;7.70;;;;;;;15.20;74.51;98328.34;5001713;28;21042;-81
2023/09/06 05:51:44;;;;;;;8.50;7.70;;;;;;;15.25;74.23;98328.53;5004509;28;20889;-83
2023/09/06 05:54:12;;;;;;;8.53;7.77;;;;;;;15.36;72.97;98337.84;5007013;28;20567;-81
2023/09/06 05:56:39;;;;;;;8.33;7.63;;;;;;;15.49;73.18;98337.72;5005859;28;20559;-83
2023/09/06 05:59:06;;;;;;;8.80;8.10;;;;;;;15.58;72.92;98346.47;4993320;28;20481;-83
2023/09/06 06:01:33;;;;;;;8.83;8.00;;;;;;;15.69;72.16;98337.50;4997877;28;20548;-83
2023/09/06 06:04:00;;;;;;;8.47;7.67;;;;;;;15.66;71.99;98337.97;4968186;28;20569;-84
2023/09/06 06:06:27;;;;;;;8.37;7.67;;;;;;;15.90;71.94;98339.78;5000721;28;20482;-84
2023/09/06 06:08:54;;;;;;;8.83;8.03;;;;;;;16.15;70.87;98341.56;5003409;28;20568;-82
2023/09/06 06:11:23;;;;;;;8.47;7.47;;;;;;;16.77;68.52;98340.28;4999849;28;20460;-84
2023/09/06 06:13:51;;;;;;;7.40;6.80;;;;;;;17.33;65.38;98345.19;5005648;28;20489;-85
2023/09/06 06:16:18;;;;;;;7.60;7.00;;;;;;;17.01;66.34;98350.16;5005508;28;20507;-82
2023/09/06 06:18:47;;;;;;;7.43;6.80;;;;;;;17.36;65.31;98344.72;5006105;28;20566;-79
2023/09/06 06:21:14;;;;;;;8.07;7.30;;;;;;;17.77;64.42;98356.63;5005541;28;20484;-84
2023/09/06 06:23:43;;;;;;;7.70;7.10;;;;;;;18.09;63.42;98340.59;5004123;28;20496;-84
2023/09/06 06:26:10;;;;;;;7.60;7.00;;;;;;;18.58;62.46;98335.50;5001907;28;20464;-82
2023/09/06 06:28:39;;;;;;;8.17;7.23;;;;;;;18.76;62.13;98344.38;5000743;28;20461;-82
2023/09/06 06:31:06;;;;;;;8.07;6.93;;;;;;;19.06;61.67;98343.25;5000233;28;20852;-81
2023/09/06 06:33:35;;;;;;;7.40;6.67;;;;;;;19.48;60.01;98343.63;5004788;28;20546;-84
2023/09/06 06:36:01;;;;;;;8.40;7.60;;;;;;;19.45;59.57;98352.38;5006311;28;21264;-85
2023/09/06 06:38:28;;;;;;;9.20;8.43;;;;;;;19.43;59.56;98322.41;4994362;28;20828;-85
2023/09/06 06:40:55;;;;;;;9.40;8.67;;;;;;;19.17;60.83;98350.53;4999335;28;20477;-80
2023/09/06 06:43:23;;;;;;;9.47;7.70;;;;;;;19.66;58.84;98356.25;4999484;28;20905;-85
2023/09/06 06:45:53;;;;;;;8.87;7.97;;;;;;;19.69;58.21;98353.00;5000048;28;20473;-75
2023/09/06 06:48:20;;;;;;;9.90;7.90;;;;;;;20.02;57.07;98352.91;5003887;28;20490;-74
2023/09/06 06:50:47;;;;;;;8.17;7.47;;;;;;;19.88;57.55;98359.03;5006003;28;20514;-76
2023/09/06 06:53:14;;;;;;;7.90;7.30;;;;;;;20.04;57.18;98349.91;4998726;28;20453;-78
2023/09/06 06:55:42;;;;;;;8.90;8.00;;;;;;;20.35;56.46;98357.44;4991641;28;20461;-78
2023/09/06 06:58:08;;;;;;;7.97;7.30;;;;;;;21.04;53.33;98340.28;4997277;28;20471;-77
2023/09/06 07:00:35;;;;;;;8.97;8.17;;;;;;;21.14;52.80;98354.94;5000697;28;20580;-75
2023/09/06 07:03:08;;;;;;;7.90;7.00;;;;;;;21.09;52.26;98354.09;5005682;28;21095;-77
2023/09/06 07:05:35;;;;;;;9.70;7.43;;;;;;;20.88;53.28;98360.50;5006940;28;21014;-77
2023/09/06 07:08:04;;;;;;;7.10;6.50;;;;;;;20.68;53.43;98366.63;5007557;28;20480;-75
2023/09/06 07:10:31;;;;;;;6.90;6.40;;;;;;;21.32;52.46;98378.53;5006366;28;20595;-78
2023/09/06 07:12:58;;;;;;;7.33;6.50;;;;;;;21.78;51.63;98367.81;5007045;28;20508;-77
2023/09/06 07:15:25;;;;;;;8.60;7.20;;;;;;;22.04;50.38;98372.44;5008444;28;20453;-80
2023/09/06 07:17:51;;;;;;;7.87;7.17;;;;;;;22.62;49.02;98367.69;5013736;28;20960;-79
2023/09/06 07:20:20;;;;;;;8.00;7.30;;;;;;;23.06;47.76;98370.84;5010424;28;20563;-79
2023/09/06 07:22:46;;;;;;;8.00;7.20;;;;;;;23.05;48.46;98368.34;5007836;28;20496;-78
2023/09/06 07:25:13;;;;;;;8.03;7.07;;;;;;;22.98;47.78;98371.38;5009166;28;20445;-78
2023/09/06 07:27:40;;;;;;;7.37;6.60;;;;;;;23.23;46.31;98370.56;5007577;28;20551;-78
2023/09/06 07:30:08;;;;;;;7.43;6.73;;;;;;;23.66;46.22;98371.13;5006530;28;20561;-79
2023/09/06 07:32:35;;;;;;;6.60;6.07;;;;;;;23.32;47.32;98374.44;5002486;28;20460;-79
2023/09/06 07:35:02;;;;;;;7.77;7.00;;;;;;;23.68;46.34;98371.69;4982324;28;20462;-78
2023/09/06 07:37:31;;;;;;;7.47;6.83;;;;;;;23.25;47.40;98373.88;4992874;28;20506;-78
2023/09/06 07:39:59;;;;;;;7.80;7.20;;;;;;;23.75;45.79;98367.50;4988093;28;20470;-79
2023/09/06 07:42:26;;;;;;;7.33;6.63;;;;;;;23.38;47.03;98367.81;5002215;28;20460;-79
2023/09/06 07:44:53;;;;;;;6.70;6.20;;;;;;;23.26;47.01;98364.50;4996837;28;20445;-79
2023/09/06 07:47:20;;;;;;;7.73;7.03;;;;;;;22.89;47.07;98369.41;4997378;28;20469;-78
2023/09/06 07:49:47;;;;;;;7.47;6.87;;;;;;;22.44;48.81;98362.66;5005646;28;20464;-78
2023/09/06 07:52:13;;;;;;;7.03;6.53;;;;;;;23.24;47.98;98363.09;5000028;28;20463;-78
2023/09/06 07:54:41;;;;;;;7.00;6.40;;;;;;;23.61;45.46;98362.84;4998443;28;21025;-79
2023/09/06 07:57:08;;;;;;;6.73;6.13;;;;;;;23.78;46.11;98363.34;5001196;28;20527;-79
2023/09/06 07:59:35;;;;;;;6.37;5.83;;;;;;;24.06;45.58;98365.47;5002130;28;21062;-79
2023/09/06 08:02:02;;;;;;;6.10;5.60;;;;;;;24.43;43.56;98361.50;4995546;28;20494;-75
2023/09/06 08:04:29;;;;;;;5.90;5.27;;;;;;;24.03;43.94;98368.84;4996555;28;20527;-77
2023/09/06 08:06:56;;;;;;;6.00;5.60;;;;;;;23.99;45.17;98366.91;4995757;28;20468;-78
2023/09/06 08:09:23;;;;;;;6.47;5.30;;;;;;;24.49;44.77;98360.34;5006296;28;22118;-78
2023/09/06 08:11:51;;;;;;;5.70;5.17;;;;;;;25.05;42.11;98365.56;5007259;28;21231;-79
2023/09/06 08:14:18;;;;;;;5.40;4.90;;;;;;;24.72;43.86;98370.75;5006555;28;20465;-79
2023/09/06 08:16:45;;;;;;;5.77;4.90;;;;;;;24.45;43.59;98373.94;5004547;28;20952;-79
2023/09/06 08:19:12;;;;;;;5.63;5.23;;;;;;;24.97;42.38;98372.56;5002456;28;20848;-78
2023/09/06 08:21:39;;;;;;;5.40;4.90;;;;;;;25.24;42.17;98374.88;5003182;28;21325;-78
2023/09/06 08:24:06;;;;;;;5.77;5.20;;;;;;;25.80;40.93;98390.19;5001416;28;20517;-78
2023/09/06 08:26:33;;;;;;;5.67;5.13;;;;;;;26.21;40.00;98388.66;4993989;28;20464;-79
2023/09/06 08:29:01;;;;;;;5.23;4.73;;;;;;;26.41;38.82;98384.81;4997278;28;20475;-79
2023/09/06 08:31:27;;;;;;;5.10;4.67;;;;;;;26.67;38.83;98388.09;5000766;28;20547;-79
2023/09/06 08:33:54;;;;;;;5.10;4.70;;;;;;;26.43;39.85;98382.56;5005359;28;20471;-79
2023/09/06 08:36:21;;;;;;;5.20;4.80;;;;;;;26.50;39.19;98391.38;5005715;28;20445;-79
2023/09/06 08:38:48;;;;;;;5.83;5.43;;;;;;;26.49;38.82;98386.94;5006079;28;20492;-79
2023/09/06 08:41:15;;;;;;;5.37;4.90;;;;;;;26.83;38.39;98383.16;5001565;28;20575;-79
2023/09/06 08:43:43;;;;;;;5.53;5.13;;;;;;;26.96;38.60;98382.47;5001246;28;20491;-80
2023/09/06 08:46:15;;;;;;;4.97;4.67;;;;;;;27.36;37.33;98387.34;4998431;28;20868;-77
2023/09/06 08:48:42;;;;;;;4.90;4.50;;;;;;;27.51;37.45;98385.47;4990202;28;20516;-80
2023/09/06 08:51:11;;;;;;;6.87;6.00;;;;;;;27.51;37.56;98385.47;4995823;28;20473;-80
2023/09/06 08:53:39;;;;;;;5.77;5.30;;;;;;;28.00;36.70;98385.69;5005110;28;21280;-79
2023/09/06 08:56:06;;;;;;;6.30;5.70;;;;;;;28.43;36.36;98391.03;4997320;28;20564;-80
2023/09/06 08:58:34;;;;;;;5.90;5.50;;;;;;;28.18;35.67;98389.56;4990420;28;20465;-79
2023/09/06 09:01:01;;;;;;;5.40;5.00;;;;;;;28.90;35.39;98395.34;4991036;28;20560;-80
2023/09/06 09:03:29;;;;;;;6.00;5.50;;;;;;;28.79;34.75;98393.03;4988400;28;20511;-80
2023/09/06 09:05:59;;;;;;;5.70;5.20;;;;;;;28.56;35.33;98387.41;4997035;28;20453;-80
2023/09/06 09:08:28;;;;;;;5.63;5.13;;;;;;;28.69;35.14;98394.09;4995801;28;20550;-80
2023/09/06 09:11:08;;;;;;;5.60;5.10;;;;;;;28.75;34.56;98398.41;5004112;28;20544;-81
2023/09/06 09:13:35;;;;;;;6.20;5.80;;;;;;;28.99;33.45;98387.84;4999458;28;20457;-81
2023/09/06 09:16:06;;;;;;;5.20;4.80;;;;;;;28.94;34.34;98384.34;5000249;28;21118;-80
2023/09/06 09:18:35;;;;;;;5.30;4.80;;;;;;;29.10;34.16;98388.47;4993599;28;20456;-81
2023/09/06 09:21:03;;;;;;;4.60;4.30;;;;;;;29.62;33.71;98389.69;5000398;28;20716;-80
2023/09/06 09:23:30;;;;;;;4.87;4.47;;;;;;;29.77;32.87;98382.91;4996847;28;20989;-79
2023/09/06 09:25:57;;;;;;;4.50;4.20;;;;;;;30.02;32.01;98387.84;4995523;28;20486;-79
2023/09/06 09:28:25;;;;;;;4.83;4.53;;;;;;;29.58;32.51;98387.84;4989550;28;20461;-79
2023/09/06 09:30:52;;;;;;;5.03;4.60;;;;;;;28.82;34.21;98386.88;4994886;28;20564;-79
2023/09/06 09:33:19;;;;;;;5.03;4.60;;;;;;;28.74;35.10;98394.81;5001747;28;20465;-78
2023/09/06 09:35:48;;;;;;;4.80;4.50;;;;;;;29.00;35.01;98383.94;5004689;28;20544;-78
2023/09/06 09:38:15;;;;;;;5.00;4.60;;;;;;;28.90;34.29;98386.97;5003697;28;20903;-79
2023/09/06 09:40:42;;;;;;;4.80;4.50;;;;;;;30.06;32.99;98372.09;4999343;28;22337;-79
2023/09/06 09:43:09;;;;;;;5.23;4.83;;;;;;;30.36;31.95;98380.75;5009141;28;20452;-79
2023/09/06 09:45:43;;;;;;;4.67;4.37;;;;;;;30.67;31.85;98373.16;5004599;28;20483;-78
2023/09/06 09:48:11;;;;;;;5.30;4.90;;;;;;;30.95;31.32;98372.88;5006605;28;20518;-81
2023/09/06 09:50:41;;;;;;;5.27;4.77;;;;;;;31.39;30.37;98364.19;5001422;28;20476;-79
2023/09/06 09:53:10;;;;;;;4.60;4.30;;;;;;;31.37;30.83;98371.25;5007284;28;20445;-79
2023/09/06 09:55:42;;;;;;;4.50;4.10;;;;;;;31.77;29.90;98385.06;4989045;28;20463;-77
2023/09/06 09:58:11;;;;;;;4.57;4.17;;;;;;;31.34;30.88;98369.94;5003955;28;20468;-77
2023/09/06 10:00:41;;;;;;;4.50;4.20;;;;;;;31.49;30.28;98373.41;5000271;28;21046;-77
2023/09/06 10:03:09;;;;;;;4.63;4.33;;;;;;;31.96;30.36;98366.72;4996370;28;20449;-77
2023/09/06 10:05:39;;;;;;;4.97;4.57;;;;;;;32.22;29.53;98358.25;5006263;28;20457;-77
2023/09/06 10:08:07;;;;;;;4.53;4.23;;;;;;;32.32;29.44;98357.06;5004299;28;20949;-77
2023/09/06 10:10:36;;;;;;;4.60;4.30;;;;;;;32.39;29.29;98365.75;5003271;28;20555;-77
2023/09/06 10:13:06;;;;;;;4.80;4.50;;;;;;;33.10;28.29;98371.44;5005413;28;20453;-77
2023/09/06 10:15:34;;;;;;;4.47;4.17;;;;;;;33.02;27.63;98370.34;5006208;28;20461;-80
2023/09/06 10:18:01;;;;;;;5.17;4.43;;;;;;;31.19;30.99;98373.22;5002758;28;20456;-78
2023/09/06 10:20:30;;;;;;;5.07;4.57;;;;;;;31.99;29.91;98366.06;5003313;28;20492;-79
2023/09/06 10:22:58;;;;;;;5.63;5.13;;;;;;;32.02;30.60;98364.56;4993137;28;20514;-79
2023/09/06 10:25:25;;;;;;;4.47;4.17;;;;;;;32.75;28.90;98367.25;4993316;28;20489;-80
2023/09/06 10:27:59;;;;;;;4.63;4.33;;;;;;;33.10;28.31;98365.00;5002514;28;20458;-79
2023/09/06 10:30:43;;;;;;;5.20;4.80;;;;;;;32.75;28.35;98370.03;4999760;28;20476;-78
2023/09/06 10:33:10;;;;;;;5.00;4.60;;;;;;;31.92;30.10;98367.72;5004008;28;20547;-79
2023/09/06 10:35:42;;;;;;;4.70;4.40;;;;;;;32.53;29.44;98357.91;4989530;28;20453;-78
2023/09/06 10:38:11;;;;;;;4.40;4.10;;;;;;;32.64;28.62;98364.78;5005659;28;20526;-79
2023/09/06 10:41:10;;;;;;;4.83;4.53;;;;;;;33.17;28.33;98366.09;5007820;28;20556;-76
2023/09/06 10:44:00;;;;;;;4.60;4.20;;;;;;;33.70;27.42;98359.69;5003974;28;20492;-76
2023/09/06 10:46:29;;;;;;;4.90;4.60;;;;;;;33.64;26.96;98354.63;5009432;28;20524;-77
2023/09/06 10:49:19;;;;;;;4.93;4.53;;;;;;;33.18;28.28;98356.50;5001895;28;20461;-78
2023/09/06 10:52:11;;;;;;;4.97;4.57;;;;;;;33.59;27.84;98354.84;4988410;28;20464;-78
2023/09/06 10:54:40;;;;;;;5.33;4.93;;;;;;;33.36;27.78;98346.81;4993311;28;20562;-77
2023/09/06 10:57:08;;;;;;;5.10;4.70;;;;;;;30.56;31.86;98355.03;5004878;28;20445;-77
2023/09/06 10:59:40;;;;;;;4.90;4.33;;;;;;;30.80;31.92;98351.00;5003440;28;20555;-78
2023/09/06 11:02:14;;;;;;;4.83;4.53;;;;;;;31.76;31.28;98342.25;5007823;28;20497;-78
2023/09/06 11:04:41;;;;;;;4.80;4.40;;;;;;;31.10;31.69;98344.41;5007673;28;20503;-77
2023/09/06 11:07:10;;;;;;;5.23;4.73;;;;;;;30.79;32.59;98355.75;5003552;28;20465;-78
2023/09/06 11:09:50;;;;;;;4.43;4.10;;;;;;;31.18;31.37;98340.03;5007460;28;20528;-79
2023/09/06 11:12:17;;;;;;;5.00;4.63;;;;;;;31.92;30.17;98336.91;5004592;28;20556;-78
2023/09/06 11:14:54;;;;;;;4.90;4.50;;;;;;;32.49;29.57;98342.94;5004608;28;20515;-78
2023/09/06 11:17:22;;;;;;;4.97;4.67;;;;;;;33.52;27.70;98329.31;4999127;28;20544;-78
2023/09/06 11:19:49;;;;;;;4.53;4.23;;;;;;;33.48;27.98;98336.78;4981318;28;20563;-78
2023/09/06 11:22:17;;;;;;;4.50;4.20;;;;;;;32.35;29.95;98334.78;4998153;28;20940;-78
2023/09/06 11:24:44;;;;;;;5.40;4.50;;;;;;;32.15;29.94;98326.31;4996051;28;21012;-78
2023/09/06 11:27:21;;;;;;;4.30;4.00;;;;;;;32.60;29.29;98323.75;4999572;28;20548;-78
2023/09/06 11:29:57;;;;;;;5.23;4.83;;;;;;;33.09;29.11;98324.91;5002859;28;20484;-79
2023/09/06 11:32:26;;;;;;;4.87;4.57;;;;;;;32.86;29.60;98327.22;4997186;28;20932;-78
2023/09/06 11:34:53;;;;;;;5.03;4.63;;;;;;;32.60;28.70;98318.97;5001285;28;20461;-78
2023/09/06 11:37:20;;;;;;;4.80;4.50;;;;;;;32.72;29.05;98327.47;5002178;28;20452;-78
2023/09/06 11:39:47;;;;;;;5.10;4.70;;;;;;;32.34;29.29;98316.34;5001969;28;20921;-78